Time;durP1;ratioP1;P1;durP2;ratioP2;P2;SDS_P1;SDS_P2;PMS_P1;PMS_P2;Temp;Humidity;BMP_temperature;BMP_pressure;BME280_temperature;BME280_humidity;BME280_pressure;Samples;Min_cycle;Max_cycle;Signal;HPM_P1;HPM_P2
2024/01/29 00:00:27;;;;;;;62.70;20.60;;;;;;;0.06;88.39;102169.64;108200;1267;22999;-77
2024/01/29 00:03:52;;;;;;;63.10;22.70;;;;;;;0.07;88.39;102166.37;108082;1265;22524;-77
2024/01/29 00:06:43;;;;;;;57.50;21.60;;;;;;;0.06;88.49;102168.95;108188;1271;25573;-77
2024/01/29 00:09:34;;;;;;;52.00;21.50;;;;;;;0.05;88.53;102169.23;108024;1271;24360;-77
2024/01/29 00:12:25;;;;;;;58.20;21.80;;;;;;;0.04;88.57;102176.73;108158;1271;25530;-76
2024/01/29 00:15:16;;;;;;;62.90;24.10;;;;;;;0.04;88.56;102180.20;108179;1271;23069;-76
2024/01/29 00:18:07;;;;;;;55.10;22.30;;;;;;;0.04;88.55;102174.87;108084;1247;22643;-78
2024/01/29 00:20:58;;;;;;;55.10;22.90;;;;;;;0.02;88.58;102166.98;108124;1271;22992;-77
2024/01/29 00:23:49;;;;;;;55.40;21.40;;;;;;;0.02;88.60;102167.52;108051;1271;22582;-77
2024/01/29 00:26:41;;;;;;;60.00;22.20;;;;;;;0.01;88.65;102167.12;108120;1271;23863;-77
2024/01/29 00:29:32;;;;;;;58.20;22.20;;;;;;;-0.01;88.76;102165.45;108200;1271;24174;-77
2024/01/29 00:32:23;;;;;;;55.70;20.90;;;;;;;-0.02;88.95;102168.00;108147;1271;22672;-78
2024/01/29 00:35:14;;;;;;;50.70;20.50;;;;;;;-0.03;88.98;102171.11;108129;1271;22552;-76
2024/01/29 00:38:05;;;;;;;53.40;21.10;;;;;;;-0.04;89.07;102170.61;108067;1271;25421;-77
2024/01/29 00:40:56;;;;;;;56.90;20.70;;;;;;;-0.05;89.05;102174.30;108149;1271;22706;-77
2024/01/29 00:43:45;;;;;;;;;;;;;;;-0.05;89.14;102179.70;108064;1271;22512;-77
2024/01/29 00:46:39;;;;;;;59.50;20.70;;;;;;;-0.06;89.16;102178.09;108058;1272;22539;-77
2024/01/29 00:49:31;;;;;;;59.30;22.20;;;;;;;-0.05;89.10;102174.30;108131;1271;22538;-77
2024/01/29 00:52:22;;;;;;;56.30;19.90;;;;;;;-0.02;89.04;102179.29;108252;1271;25621;-79
2024/01/29 00:55:14;;;;;;;56.40;20.60;;;;;;;0.01;88.98;102179.03;108182;1271;22570;-77
2024/01/29 00:58:05;;;;;;;56.40;21.10;;;;;;;0.01;88.98;102176.29;108143;1265;22765;-79
2024/01/29 01:00:56;;;;;;;55.50;19.60;;;;;;;0.00;88.96;102170.71;108109;1271;22537;-77
2024/01/29 01:03:47;;;;;;;51.40;21.40;;;;;;;-0.01;88.88;102170.77;108044;1254;22714;-76
2024/01/29 01:06:38;;;;;;;61.90;22.40;;;;;;;-0.04;88.99;102167.39;107991;1270;24387;-77
2024/01/29 01:09:29;;;;;;;63.70;23.60;;;;;;;-0.06;89.03;102164.32;108234;1270;24354;-76
2024/01/29 01:12:20;;;;;;;55.80;22.60;;;;;;;-0.07;89.08;102161.39;108027;1271;25447;-76
2024/01/29 01:15:10;;;;;;;53.30;21.50;;;;;;;-0.07;89.17;102159.27;108283;1271;22532;-76
2024/01/29 01:18:03;;;;;;;61.30;23.90;;;;;;;-0.09;89.13;102158.91;108184;1271;22519;-77
2024/01/29 01:20:55;;;;;;;65.80;29.00;;;;;;;-0.08;89.17;102158.84;108068;1271;22711;-76
2024/01/29 01:23:46;;;;;;;62.90;25.00;;;;;;;-0.09;89.11;102152.88;108100;1271;22599;-77
2024/01/29 01:26:38;;;;;;;66.50;26.00;;;;;;;-0.10;89.17;102157.48;108106;1271;24315;-77
2024/01/29 01:29:29;;;;;;;59.20;26.70;;;;;;;-0.11;89.18;102152.83;108119;1271;24220;-76
2024/01/29 01:32:19;;;;;;;64.00;26.60;;;;;;;-0.13;89.25;102145.57;108095;1263;22772;-77
2024/01/29 01:35:11;;;;;;;62.80;25.70;;;;;;;-0.16;89.26;102144.63;108280;1270;25635;-77
2024/01/29 01:38:02;;;;;;;53.30;25.40;;;;;;;-0.18;89.33;102147.58;108090;1271;23602;-78
2024/01/29 01:40:54;;;;;;;60.60;24.70;;;;;;;-0.18;89.38;102145.29;108256;1271;24775;-77
2024/01/29 01:43:58;;;;;;;65.30;26.90;;;;;;;-0.18;89.29;102145.61;108036;1271;24221;-78
2024/01/29 01:46:49;;;;;;;59.00;25.30;;;;;;;-0.14;89.27;102152.36;108039;1272;23534;-77
2024/01/29 01:49:40;;;;;;;61.50;25.20;;;;;;;-0.14;89.26;102153.09;107987;1272;22763;-77
2024/01/29 01:52:32;;;;;;;64.10;25.40;;;;;;;-0.13;89.16;102155.05;108194;1272;22550;-76
2024/01/29 01:55:23;;;;;;;58.40;24.90;;;;;;;-0.14;89.11;102157.71;107966;1272;22658;-75
2024/01/29 01:58:18;;;;;;;55.20;25.50;;;;;;;-0.12;89.07;102157.03;108225;1271;22576;-76
2024/01/29 02:01:08;;;;;;;59.20;23.30;;;;;;;-0.12;89.03;102150.98;108118;1271;24053;-76
2024/01/29 02:04:00;;;;;;;60.30;24.70;;;;;;;-0.13;89.00;102150.50;108145;1271;25329;-76
2024/01/29 02:06:51;;;;;;;65.60;24.90;;;;;;;-0.16;88.93;102148.40;108076;1271;23124;-77
2024/01/29 02:09:43;;;;;;;51.60;22.80;;;;;;;-0.16;89.08;102148.10;108103;1271;22762;-77
2024/01/29 02:12:34;;;;;;;56.00;22.10;;;;;;;-0.15;88.88;102143.33;108284;1269;22702;-76
2024/01/29 02:15:23;;;;;;;;;;;;;;;-0.15;88.80;102139.57;108117;1269;22541;-76
2024/01/29 02:18:14;;;;;;;58.60;24.10;;;;;;;-0.16;88.69;102137.81;108252;1269;24225;-76
2024/01/29 02:21:05;;;;;;;61.40;24.60;;;;;;;-0.20;88.72;102140.33;108231;1269;24180;-76
2024/01/29 02:23:56;;;;;;;63.00;24.70;;;;;;;-0.24;88.81;102137.50;108227;1269;22684;-76
2024/01/29 02:26:49;;;;;;;61.70;24.70;;;;;;;-0.29;88.72;102130.02;108255;1269;22642;-77
2024/01/29 02:29:40;;;;;;;67.00;26.90;;;;;;;-0.33;88.85;102132.05;108154;1269;22768;-76
2024/01/29 02:32:31;;;;;;;66.90;25.20;;;;;;;-0.34;88.96;102134.83;108085;1269;22535;-76
2024/01/29 02:35:22;;;;;;;69.50;26.30;;;;;;;-0.36;88.96;102133.46;108072;1264;22587;-77
2024/01/29 02:38:13;;;;;;;62.20;27.40;;;;;;;-0.38;88.99;102122.98;108177;1271;24355;-78
2024/01/29 02:41:04;;;;;;;65.10;26.20;;;;;;;-0.39;88.99;102117.39;108111;1271;22641;-77
2024/01/29 02:43:55;;;;;;;60.20;25.40;;;;;;;-0.43;89.03;102119.29;108021;1271;25679;-77
2024/01/29 02:46:46;;;;;;;73.00;27.20;;;;;;;-0.46;89.32;102115.52;108051;1271;24346;-78
2024/01/29 02:49:37;;;;;;;76.70;31.20;;;;;;;-0.48;89.26;102108.52;107728;1271;22751;-77
2024/01/29 02:52:28;;;;;;;81.00;32.20;;;;;;;-0.53;89.37;102105.89;107995;1271;22533;-77
2024/01/29 02:55:19;;;;;;;75.20;30.60;;;;;;;-0.56;89.48;102107.78;107878;1271;22705;-78
2024/01/29 02:58:10;;;;;;;76.40;31.00;;;;;;;-0.57;89.63;102107.91;107951;1271;25432;-77
2024/01/29 03:01:01;;;;;;;79.90;31.10;;;;;;;-0.58;89.69;102110.56;107955;1265;22866;-77
2024/01/29 03:03:52;;;;;;;76.60;31.00;;;;;;;-0.59;89.68;102110.30;107855;1271;24376;-77
2024/01/29 03:06:43;;;;;;;76.60;30.70;;;;;;;-0.60;89.84;102108.70;107927;1271;24186;-77
2024/01/29 03:09:34;;;;;;;78.50;32.00;;;;;;;-0.61;89.84;102105.88;107932;1271;23006;-78
2024/01/29 03:12:24;;;;;;;72.90;30.30;;;;;;;-0.62;89.82;102108.27;107806;1271;22613;-77
2024/01/29 03:15:16;;;;;;;69.90;30.10;;;;;;;-0.61;89.95;102109.85;107994;1271;25382;-77
2024/01/29 03:18:07;;;;;;;71.30;31.90;;;;;;;-0.61;89.91;102108.21;107881;1271;25524;-77
2024/01/29 03:20:58;;;;;;;77.30;32.20;;;;;;;-0.63;89.80;102100.19;107929;1271;22593;-77
2024/01/29 03:23:50;;;;;;;80.50;32.30;;;;;;;-0.64;90.07;102094.75;108038;1271;25406;-77
2024/01/29 03:26:41;;;;;;;73.20;32.90;;;;;;;-0.63;90.07;102091.40;108010;1262;22600;-77
2024/01/29 03:29:32;;;;;;;79.10;33.90;;;;;;;-0.63;90.10;102087.63;108008;1271;24231;-77
2024/01/29 03:32:23;;;;;;;72.30;31.20;;;;;;;-0.64;90.16;102088.16;107829;1271;26861;-77
2024/01/29 03:35:14;;;;;;;72.30;31.40;;;;;;;-0.65;90.14;102086.26;108063;1271;25294;-77
2024/01/29 03:38:05;;;;;;;76.70;32.00;;;;;;;-0.65;90.14;102085.31;108155;1266;22708;-77
2024/01/29 03:40:56;;;;;;;75.70;33.80;;;;;;;-0.69;90.20;102084.15;107816;1272;22635;-77
2024/01/29 03:43:47;;;;;;;64.80;30.80;;;;;;;-0.70;90.30;102080.59;108108;1271;22655;-77
2024/01/29 03:46:38;;;;;;;72.60;31.90;;;;;;;-0.68;90.43;102081.10;108206;1271;23066;-78
2024/01/29 03:49:29;;;;;;;69.30;29.40;;;;;;;-0.68;90.46;102082.66;108203;1271;22643;-77
2024/01/29 03:52:20;;;;;;;69.50;28.40;;;;;;;-0.69;90.32;102083.20;108168;1271;25646;-78
2024/01/29 03:55:11;;;;;;;74.90;31.10;;;;;;;-0.70;90.44;102082.86;108009;1271;25425;-77
2024/01/29 03:58:02;;;;;;;77.00;31.10;;;;;;;-0.71;90.43;102075.53;108019;1271;22556;-79
2024/01/29 04:00:52;;;;;;;68.80;31.90;;;;;;;-0.72;90.50;102080.38;108045;1271;25316;-78
2024/01/29 04:03:43;;;;;;;79.40;31.80;;;;;;;-0.73;90.43;102078.25;108172;1271;23211;-78
2024/01/29 04:06:35;;;;;;;76.10;31.30;;;;;;;-0.74;90.61;102077.90;108049;1271;24263;-77
2024/01/29 04:09:25;;;;;;;82.40;34.20;;;;;;;-0.75;90.51;102075.55;108098;1271;25611;-77
2024/01/29 04:12:16;;;;;;;82.60;35.50;;;;;;;-0.72;90.57;102066.44;107965;1271;25357;-76
2024/01/29 04:15:09;;;;;;;78.90;35.10;;;;;;;-0.74;90.57;102068.58;108092;1271;22637;-76
2024/01/29 04:18:00;;;;;;;78.50;34.10;;;;;;;-0.75;90.66;102065.10;108028;1269;22624;-77
2024/01/29 04:20:51;;;;;;;73.10;31.30;;;;;;;-0.75;90.74;102062.38;107883;1271;23290;-77
2024/01/29 04:23:42;;;;;;;75.70;32.90;;;;;;;-0.76;90.60;102064.54;108038;1271;22533;-77
2024/01/29 04:26:33;;;;;;;87.50;34.80;;;;;;;-0.77;90.78;102063.34;108159;1271;22654;-76
2024/01/29 04:29:25;;;;;;;79.90;32.60;;;;;;;-0.79;90.66;102054.38;108058;1271;24329;-78
2024/01/29 04:32:15;;;;;;;83.20;38.50;;;;;;;-0.79;90.86;102053.42;108034;1271;22533;-77
2024/01/29 04:35:07;;;;;;;85.80;34.00;;;;;;;-0.81;90.84;102051.28;108113;1271;23310;-78
2024/01/29 04:37:59;;;;;;;83.20;33.50;;;;;;;-0.80;90.95;102043.38;107904;1251;22722;-78
2024/01/29 04:40:50;;;;;;;77.90;33.90;;;;;;;-0.83;90.99;102047.86;108085;1271;24190;-77
2024/01/29 04:43:41;;;;;;;85.00;36.10;;;;;;;-0.85;90.94;102046.71;107962;1271;22639;-77
2024/01/29 04:46:32;;;;;;;78.90;35.10;;;;;;;-0.88;91.08;102048.94;107896;1272;22545;-77
2024/01/29 04:49:23;;;;;;;91.30;36.80;;;;;;;-0.89;91.15;102050.00;107642;1272;22643;-77
2024/01/29 04:52:14;;;;;;;87.20;40.00;;;;;;;-0.90;91.26;102047.56;107763;1272;22661;-76
2024/01/29 04:55:06;;;;;;;89.20;37.40;;;;;;;-0.90;91.37;102054.46;107763;1272;22629;-76
2024/01/29 04:57:57;;;;;;;90.90;40.10;;;;;;;-0.90;91.27;102051.31;107787;1272;22657;-77
2024/01/29 05:00:48;;;;;;;93.50;39.20;;;;;;;-0.89;91.39;102049.77;107748;1272;24318;-76
2024/01/29 05:03:39;;;;;;;85.80;37.60;;;;;;;-0.89;91.35;102054.54;107806;1272;22822;-77
2024/01/29 05:06:30;;;;;;;87.40;37.90;;;;;;;-0.89;91.39;102047.42;107850;1271;22641;-77
2024/01/29 05:09:21;;;;;;;92.90;38.10;;;;;;;-0.90;91.34;102043.02;107894;1271;22640;-77
2024/01/29 05:12:12;;;;;;;92.00;39.10;;;;;;;-0.92;91.53;102038.66;107978;1268;25402;-77
2024/01/29 05:15:03;;;;;;;92.60;38.50;;;;;;;-0.96;91.72;102037.55;107706;1271;22531;-77
2024/01/29 05:17:54;;;;;;;85.30;37.20;;;;;;;-0.98;91.84;102032.64;107767;1267;25644;-77
2024/01/29 05:20:46;;;;;;;85.40;37.40;;;;;;;-0.99;92.08;102028.86;107720;1272;22543;-77
2024/01/29 05:23:37;;;;;;;82.90;36.70;;;;;;;-0.99;92.05;102025.88;107685;1271;22696;-77
2024/01/29 05:26:28;;;;;;;85.40;36.30;;;;;;;-1.01;92.20;102024.91;107704;1272;22538;-77
2024/01/29 05:29:19;;;;;;;85.90;35.40;;;;;;;-1.01;92.50;102025.45;107611;1271;22609;-78
2024/01/29 05:32:10;;;;;;;83.20;36.20;;;;;;;-1.02;92.54;102025.11;107773;1271;22545;-76
2024/01/29 05:35:02;;;;;;;86.00;36.30;;;;;;;-1.03;92.57;102025.33;107711;1271;22647;-79
2024/01/29 05:37:53;;;;;;;84.70;33.60;;;;;;;-1.03;92.85;102023.91;107869;1271;22527;-77
2024/01/29 05:40:44;;;;;;;86.90;35.50;;;;;;;-1.04;92.72;102027.96;107738;1272;26535;-78
2024/01/29 05:43:36;;;;;;;82.70;36.90;;;;;;;-1.03;92.72;102030.34;107681;1273;24337;-77
2024/01/29 05:46:27;;;;;;;90.40;35.70;;;;;;;-1.02;92.78;102027.78;107864;1272;22575;-77
2024/01/29 05:49:19;;;;;;;85.60;35.50;;;;;;;-1.02;92.88;102026.06;107939;1272;22601;-77
2024/01/29 05:52:10;;;;;;;75.50;32.90;;;;;;;-1.02;92.90;102030.21;107976;1272;22829;-77
2024/01/29 05:55:02;;;;;;;80.40;34.10;;;;;;;-1.03;92.94;102029.95;107876;1272;24253;-77
2024/01/29 05:57:53;;;;;;;81.70;33.90;;;;;;;-1.02;93.01;102028.96;108064;1267;22966;-78
2024/01/29 06:00:44;;;;;;;83.60;36.20;;;;;;;-1.01;93.12;102028.27;108070;1272;23651;-78
2024/01/29 06:03:36;;;;;;;82.70;34.60;;;;;;;-1.01;93.03;102024.58;108146;1267;22731;-76
2024/01/29 06:06:27;;;;;;;83.20;35.20;;;;;;;-1.02;93.10;102027.46;107993;1267;22543;-76
2024/01/29 06:09:18;;;;;;;84.40;36.50;;;;;;;-1.03;93.02;102036.14;108274;1269;22684;-77
2024/01/29 06:12:09;;;;;;;83.10;35.30;;;;;;;-1.04;92.91;102031.51;107944;1267;25521;-77
2024/01/29 06:15:00;;;;;;;80.90;35.80;;;;;;;-1.04;92.92;102035.42;107987;1272;22614;-76
2024/01/29 06:17:51;;;;;;;80.30;34.80;;;;;;;-1.03;92.87;102035.97;107935;1270;22693;-76
2024/01/29 06:20:41;;;;;;;88.20;34.40;;;;;;;-1.01;92.86;102039.38;108074;1267;22646;-76
2024/01/29 06:23:32;;;;;;;85.30;35.20;;;;;;;-1.04;92.77;102038.45;107984;1272;22551;-79
2024/01/29 06:26:23;;;;;;;80.90;34.20;;;;;;;-1.05;92.85;102037.04;107840;1272;22626;-76
2024/01/29 06:29:14;;;;;;;84.60;33.70;;;;;;;-1.05;92.91;102035.92;107907;1271;22607;-76
2024/01/29 06:32:06;;;;;;;75.90;31.80;;;;;;;-1.06;93.02;102039.42;108344;1271;22527;-78
2024/01/29 06:34:57;;;;;;;75.90;33.10;;;;;;;-1.05;92.94;102043.28;108000;1273;23941;-76
2024/01/29 06:37:48;;;;;;;82.30;33.90;;;;;;;-1.05;92.96;102038.69;107856;1272;22818;-76
2024/01/29 06:40:39;;;;;;;78.40;32.90;;;;;;;-1.05;92.95;102038.36;108042;1272;22556;-77
2024/01/29 06:43:30;;;;;;;82.00;33.80;;;;;;;-1.04;92.97;102042.00;108051;1271;24353;-77
2024/01/29 06:46:21;;;;;;;76.50;33.10;;;;;;;-1.02;92.93;102039.98;107869;1272;24191;-77
2024/01/29 06:49:27;;;;;;;80.00;33.60;;;;;;;-1.03;92.90;102037.71;108408;1265;22614;-79
2024/01/29 06:52:18;;;;;;;84.40;35.20;;;;;;;-1.05;92.92;102032.70;107975;1269;24353;-77
2024/01/29 06:55:09;;;;;;;78.60;32.10;;;;;;;-1.06;93.03;102031.30;107996;1271;24245;-77
2024/01/29 06:58:00;;;;;;;82.20;34.60;;;;;;;-1.07;93.07;102032.12;107961;1272;24404;-78
2024/01/29 07:00:54;;;;;;;80.60;33.20;;;;;;;-1.06;92.99;102041.08;108099;1271;22530;-77
2024/01/29 07:03:45;;;;;;;81.10;31.50;;;;;;;-1.07;93.13;102040.66;107961;1272;22543;-77
2024/01/29 07:06:36;;;;;;;86.80;33.30;;;;;;;-1.07;93.34;102033.31;108114;1271;24378;-78
2024/01/29 07:09:25;;;;;;;;;;;;;;;-1.07;93.32;102034.48;108049;1271;22547;-78
2024/01/29 07:12:16;;;;;;;81.40;36.40;;;;;;;-1.06;93.65;102033.63;108237;1271;22703;-79
2024/01/29 07:15:08;;;;;;;84.60;35.40;;;;;;;-1.04;93.58;102034.39;107966;1271;25458;-77
2024/01/29 07:17:59;;;;;;;80.30;33.80;;;;;;;-1.02;93.73;102038.75;108133;1264;22541;-77
2024/01/29 07:20:51;;;;;;;80.20;33.30;;;;;;;-1.00;93.57;102037.31;108215;1264;22597;-77
2024/01/29 07:23:42;;;;;;;80.80;33.50;;;;;;;-0.98;93.72;102037.72;107861;1272;23911;-77
2024/01/29 07:26:34;;;;;;;88.50;36.10;;;;;;;-0.98;93.82;102041.71;108344;1272;25468;-79
2024/01/29 07:29:26;;;;;;;87.10;35.90;;;;;;;-0.96;93.82;102045.45;108193;1264;22735;-78
2024/01/29 07:32:17;;;;;;;89.30;35.60;;;;;;;-0.94;93.80;102042.28;108276;1266;23305;-78
2024/01/29 07:35:09;;;;;;;82.20;34.80;;;;;;;-0.91;93.87;102041.35;108119;1272;22653;-79
2024/01/29 07:38:00;;;;;;;82.00;35.90;;;;;;;-0.88;94.02;102040.14;107908;1272;22753;-78
2024/01/29 07:40:51;;;;;;;77.90;34.10;;;;;;;-0.86;94.03;102038.73;108113;1271;22778;-77
2024/01/29 07:43:42;;;;;;;81.30;34.90;;;;;;;-0.81;93.94;102047.27;108550;1271;22581;-76
2024/01/29 07:46:34;;;;;;;72.50;32.50;;;;;;;-0.77;94.03;102040.63;108031;1271;25392;-76
2024/01/29 07:49:27;;;;;;;83.10;34.50;;;;;;;-0.73;93.90;102044.09;108180;1271;22819;-76
2024/01/29 07:52:18;;;;;;;87.00;34.10;;;;;;;-0.69;93.99;102044.89;108254;1268;25315;-78
2024/01/29 07:55:09;;;;;;;79.10;33.60;;;;;;;-0.65;94.07;102044.10;108197;1256;25561;-76
2024/01/29 07:58:00;;;;;;;75.90;31.90;;;;;;;-0.63;94.19;102043.67;108170;1256;25388;-78
2024/01/29 08:00:52;;;;;;;84.00;34.00;;;;;;;-0.61;94.17;102044.90;108202;1267;22772;-79
2024/01/29 08:03:45;;;;;;;76.80;33.10;;;;;;;-0.56;94.23;102039.89;107992;1271;25075;-77
2024/01/29 08:06:36;;;;;;;73.70;30.80;;;;;;;-0.52;94.23;102038.19;108017;1271;22603;-76
2024/01/29 08:09:28;;;;;;;74.40;30.30;;;;;;;-0.48;94.35;102039.14;108111;1264;23041;-77
2024/01/29 08:12:20;;;;;;;76.10;32.50;;;;;;;-0.45;94.60;102037.86;108115;1271;22606;-78
2024/01/29 08:15:11;;;;;;;81.50;31.30;;;;;;;-0.40;94.66;102031.77;108111;1267;22708;-77
2024/01/29 08:18:02;;;;;;;75.80;32.20;;;;;;;-0.35;94.67;102030.71;108208;1271;22636;-77
2024/01/29 08:20:53;;;;;;;69.90;30.80;;;;;;;-0.30;94.63;102026.40;108121;1271;22570;-78
2024/01/29 08:23:44;;;;;;;86.00;33.70;;;;;;;-0.26;94.66;102027.89;108289;1269;22734;-77
2024/01/29 08:26:35;;;;;;;73.60;31.70;;;;;;;-0.22;94.77;102029.55;108339;1267;25397;-78
2024/01/29 08:29:26;;;;;;;70.80;29.30;;;;;;;-0.16;94.85;102032.02;108046;1263;23746;-78
2024/01/29 08:32:19;;;;;;;73.70;32.40;;;;;;;-0.11;94.81;102031.95;108134;1271;22772;-78
2024/01/29 08:35:10;;;;;;;77.60;31.50;;;;;;;-0.05;94.76;102038.41;108019;1264;22572;-78
2024/01/29 08:38:02;;;;;;;70.60;29.20;;;;;;;0.01;94.76;102037.36;108162;1267;22615;-77
2024/01/29 08:40:54;;;;;;;74.30;28.90;;;;;;;0.07;94.72;102035.81;108333;1264;25505;-79
2024/01/29 08:43:45;;;;;;;67.10;28.20;;;;;;;0.12;94.77;102031.36;107967;1263;126309;-77
2024/01/29 08:46:36;;;;;;;66.00;26.40;;;;;;;0.19;94.69;102036.98;108275;1264;23193;-77
2024/01/29 08:49:28;;;;;;;67.30;27.10;;;;;;;0.25;94.62;102035.84;108172;1266;25562;-77
2024/01/29 08:52:19;;;;;;;68.80;28.10;;;;;;;0.31;94.45;102037.83;108069;1264;22534;-78
2024/01/29 08:55:11;;;;;;;75.70;29.80;;;;;;;0.37;94.54;102040.45;108187;1265;23277;-77
2024/01/29 08:58:01;;;;;;;68.40;26.50;;;;;;;0.43;94.49;102040.71;108407;1270;27765;-77
2024/01/29 09:00:54;;;;;;;62.30;27.40;;;;;;;0.50;94.42;102038.95;108396;1266;25486;-77
2024/01/29 09:03:45;;;;;;;68.00;29.70;;;;;;;0.57;94.35;102040.39;110793;1271;22427;-76
2024/01/29 09:06:36;;;;;;;62.70;25.50;;;;;;;0.65;94.28;102041.39;111002;1266;22113;-77
2024/01/29 09:09:25;;;;;;;;;;;;;;;0.73;94.18;102040.89;111072;1267;22331;-76
2024/01/29 09:12:16;;;;;;;68.60;27.10;;;;;;;0.81;94.11;102047.23;111096;1265;22982;-77
2024/01/29 09:15:06;;;;;;;;;;;;;;;0.91;94.05;102048.63;111121;1267;22465;-77
2024/01/29 09:17:57;;;;;;;56.00;21.50;;;;;;;1.02;94.12;102051.86;111074;1264;22538;-77
2024/01/29 09:20:48;;;;;;;58.00;22.80;;;;;;;1.12;93.80;102052.01;111123;1267;22325;-77
2024/01/29 09:23:40;;;;;;;49.10;19.70;;;;;;;1.20;93.54;102047.48;111127;1268;22117;-76
2024/01/29 09:26:31;;;;;;;51.40;21.50;;;;;;;1.30;93.33;102052.11;111057;1263;22110;-77
2024/01/29 09:29:22;;;;;;;53.70;20.90;;;;;;;1.39;93.29;102050.98;111097;1263;22271;-76
2024/01/29 09:32:13;;;;;;;51.90;23.10;;;;;;;1.48;93.26;102046.93;111065;1263;23381;-77
2024/01/29 09:35:05;;;;;;;48.90;19.30;;;;;;;1.54;93.03;102047.32;111082;1271;22283;-77
2024/01/29 09:37:56;;;;;;;48.70;18.60;;;;;;;1.61;92.96;102045.58;110995;1272;22364;-76
2024/01/29 09:40:48;;;;;;;48.70;21.20;;;;;;;1.68;92.86;102043.25;110821;1272;22271;-77
2024/01/29 09:43:44;;;;;;;50.50;20.60;;;;;;;1.77;92.80;102045.48;110784;1273;22197;-76
2024/01/29 09:46:38;;;;;;;51.20;22.20;;;;;;;1.84;92.78;102049.18;110713;1272;23170;-77
2024/01/29 09:49:29;;;;;;;51.30;20.30;;;;;;;1.91;92.73;102048.46;110828;1270;22246;-76
2024/01/29 09:52:20;;;;;;;57.50;22.00;;;;;;;1.98;92.65;102043.50;110745;1270;22369;-76
2024/01/29 09:55:12;;;;;;;49.90;21.50;;;;;;;2.04;92.56;102043.27;110723;1273;22182;-76
2024/01/29 09:58:03;;;;;;;51.80;20.40;;;;;;;2.11;92.47;102041.14;110996;1270;22329;-76
2024/01/29 10:00:56;;;;;;;47.80;20.60;;;;;;;2.17;92.42;102052.20;110807;1269;22393;-76
2024/01/29 10:03:47;;;;;;;50.50;19.10;;;;;;;2.24;92.25;102051.34;110789;1267;22193;-76
2024/01/29 10:06:38;;;;;;;46.20;19.70;;;;;;;2.30;91.98;102049.04;110960;1260;22263;-76
2024/01/29 10:09:29;;;;;;;45.20;18.80;;;;;;;2.38;91.99;102048.55;111042;1270;22956;-76
2024/01/29 10:12:26;;;;;;;48.00;18.30;;;;;;;2.43;91.91;102052.88;110945;1271;22160;-75
2024/01/29 10:15:17;;;;;;;57.60;19.50;;;;;;;2.50;91.80;102048.67;110772;1272;22917;-77
2024/01/29 10:18:12;;;;;;;44.60;18.00;;;;;;;2.57;91.74;102043.52;110838;1264;22977;-76
2024/01/29 10:21:05;;;;;;;44.40;15.60;;;;;;;2.66;91.57;102041.88;110980;1271;22168;-76
2024/01/29 10:24:00;;;;;;;43.90;16.00;;;;;;;2.76;91.04;102042.52;110904;1271;23152;-75
2024/01/29 10:26:51;;;;;;;55.90;19.90;;;;;;;2.88;91.08;102042.28;110738;1272;22280;-76
2024/01/29 10:29:51;;;;;;;52.20;16.60;;;;;;;2.96;90.72;102040.21;110775;1270;22283;-76
2024/01/29 10:32:42;;;;;;;47.00;15.50;;;;;;;3.07;90.14;102040.52;110901;1264;22168;-76
2024/01/29 10:35:33;;;;;;;44.30;14.30;;;;;;;3.19;89.71;102035.64;111031;1264;22678;-76
2024/01/29 10:38:28;;;;;;;59.80;18.60;;;;;;;3.31;89.61;102038.38;111010;1271;23359;-76
2024/01/29 10:41:21;;;;;;;55.90;18.30;;;;;;;3.39;89.32;102031.88;111029;1259;22073;-76
2024/01/29 10:44:14;;;;;;;39.60;13.10;;;;;;;3.49;88.93;102030.11;111015;1271;22415;-75
2024/01/29 10:47:09;;;;;;;41.90;11.90;;;;;;;3.60;88.81;102020.37;111004;1271;22233;-77
2024/01/29 10:50:01;;;;;;;38.90;14.30;;;;;;;3.68;88.86;102017.17;110833;1272;22271;-76
2024/01/29 10:52:54;;;;;;;35.10;13.40;;;;;;;3.71;88.92;102017.18;111100;1271;22346;-77
2024/01/29 10:56:03;;;;;;;38.90;13.40;;;;;;;3.77;88.84;102016.10;111083;1271;22112;-77
2024/01/29 10:59:44;;;;;;;39.30;12.30;;;;;;;3.87;88.66;102009.34;110174;1279;22209;-77
2024/01/29 11:02:35;;;;;;;35.90;12.00;;;;;;;3.97;88.26;102011.97;111034;1265;22190;-77
2024/01/29 11:05:27;;;;;;;32.80;11.90;;;;;;;4.06;88.11;102010.18;110982;1265;22313;-77
2024/01/29 11:08:24;;;;;;;40.20;13.30;;;;;;;4.15;88.04;102005.68;110959;1264;22191;-77
2024/01/29 11:11:15;;;;;;;35.20;11.70;;;;;;;4.19;88.00;102005.38;110973;1264;22423;-77
2024/01/29 11:14:06;;;;;;;34.60;11.50;;;;;;;4.26;87.80;102006.65;110978;1264;23076;-79
2024/01/29 11:16:57;;;;;;;31.80;11.70;;;;;;;4.30;87.83;101997.17;110809;1272;22200;-77
2024/01/29 11:19:52;;;;;;;32.20;11.50;;;;;;;4.35;87.67;102000.65;110814;1272;22288;-77
2024/01/29 11:22:51;;;;;;;32.40;10.80;;;;;;;4.41;87.30;102002.39;110833;1272;23023;-77
2024/01/29 11:25:42;;;;;;;33.10;10.70;;;;;;;4.46;87.17;102000.34;110847;1272;23020;-78
2024/01/29 11:28:32;;;;;;;;;;;;;;;4.51;87.06;101999.23;110954;1272;22389;-77
2024/01/29 11:31:23;;;;;;;34.00;10.80;;;;;;;4.58;86.61;101994.01;111079;1271;22914;-78
2024/01/29 11:34:14;;;;;;;31.60;11.00;;;;;;;4.68;86.42;101993.70;111110;1271;22382;-78
2024/01/29 11:37:05;;;;;;;33.70;12.00;;;;;;;4.77;86.53;101992.58;111020;1265;22267;-77
2024/01/29 11:39:55;;;;;;;36.40;12.20;;;;;;;4.83;86.36;101991.07;110847;1271;22235;-77
2024/01/29 11:42:47;;;;;;;32.50;9.90;;;;;;;4.90;85.87;101989.08;110886;1271;22955;-78
2024/01/29 11:45:38;;;;;;;32.40;9.90;;;;;;;5.01;85.27;101985.20;110837;1272;22258;-78
2024/01/29 11:48:29;;;;;;;28.10;9.50;;;;;;;5.12;85.23;101981.27;110783;1268;23512;-79
2024/01/29 11:51:20;;;;;;;27.70;8.70;;;;;;;5.20;84.65;101980.08;110770;1272;23384;-77
2024/01/29 11:54:11;;;;;;;31.00;7.80;;;;;;;5.30;84.63;101976.55;110911;1271;22125;-78
2024/01/29 11:57:02;;;;;;;32.10;9.20;;;;;;;5.40;84.03;101972.00;110947;1265;23028;-77
2024/01/29 11:59:53;;;;;;;26.10;7.30;;;;;;;5.51;83.80;101971.80;110855;1269;22144;-78
2024/01/29 12:02:44;;;;;;;21.10;6.90;;;;;;;5.60;83.78;101963.44;110847;1269;22173;-77
2024/01/29 12:05:36;;;;;;;23.20;6.60;;;;;;;5.67;83.83;101957.39;110878;1264;22326;-78
2024/01/29 12:08:27;;;;;;;23.70;5.90;;;;;;;5.76;83.31;101958.20;110881;1264;22329;-78
2024/01/29 12:11:18;;;;;;;25.40;7.80;;;;;;;5.87;83.31;101952.78;110862;1272;22252;-78
2024/01/29 12:14:11;;;;;;;21.60;5.60;;;;;;;5.93;83.06;101949.43;110813;1272;22242;-79
2024/01/29 12:17:05;;;;;;;20.30;5.80;;;;;;;6.02;82.95;101946.98;110778;1273;22144;-77
2024/01/29 12:19:56;;;;;;;24.30;5.90;;;;;;;6.12;82.15;101937.02;110850;1272;22231;-77
2024/01/29 12:22:47;;;;;;;19.20;6.00;;;;;;;6.22;82.34;101934.88;110846;1272;23316;-78
2024/01/29 12:25:38;;;;;;;21.30;5.30;;;;;;;6.29;81.92;101934.10;110859;1272;22235;-78
2024/01/29 12:28:29;;;;;;;20.80;5.40;;;;;;;6.36;81.59;101933.09;110768;1273;23045;-78
2024/01/29 12:31:21;;;;;;;18.10;4.50;;;;;;;6.42;81.44;101931.92;110969;1271;23326;-78
2024/01/29 12:34:21;;;;;;;19.40;5.40;;;;;;;6.45;81.22;101925.71;110802;1258;22182;-78
2024/01/29 12:37:21;;;;;;;23.80;6.10;;;;;;;6.50;81.12;101927.89;110941;1264;23275;-78
2024/01/29 12:40:17;;;;;;;21.40;5.90;;;;;;;6.53;80.88;101925.08;110969;1265;22208;-79
2024/01/29 12:43:09;;;;;;;23.80;5.10;;;;;;;6.60;80.63;101926.92;110995;1271;22161;-78
2024/01/29 12:46:10;;;;;;;21.40;5.70;;;;;;;6.62;80.79;101924.91;110968;1271;22865;-78
2024/01/29 12:49:05;;;;;;;24.20;5.70;;;;;;;6.63;80.32;101926.02;111042;1267;22265;-79
2024/01/29 12:51:56;;;;;;;24.00;7.50;;;;;;;6.70;79.94;101916.52;110988;1267;22879;-79
2024/01/29 12:54:50;;;;;;;26.20;7.40;;;;;;;6.77;79.62;101916.13;111099;1269;23041;-78
2024/01/29 12:57:41;;;;;;;29.20;7.30;;;;;;;6.82;79.44;101907.98;111054;1267;23015;-77